sensor_id;sensor_type;location;lat;lon;timestamp;pressure;altitude;pressure_sealevel;temperature;humidity
65280;BME280;51878;55.748;48.742;2022-08-19T00:01:48;100206.31;;;13.27;60.85
65280;BME280;51878;55.748;48.742;2022-08-19T00:04:22;100253.94;;;13.54;61.06
65280;BME280;51878;55.748;48.742;2022-08-19T00:06:51;100208.28;;;13.18;61.02
65280;BME280;51878;55.748;48.742;2022-08-19T00:09:19;100263.13;;;13.38;61.50
65280;BME280;51878;55.748;48.742;2022-08-19T00:11:47;100264.91;;;13.46;60.75
65280;BME280;51878;55.748;48.742;2022-08-19T00:14:16;100266.50;;;13.40;60.99
65280;BME280;51878;55.748;48.742;2022-08-19T00:16:45;100266.69;;;13.39;60.96
65280;BME280;51878;55.748;48.742;2022-08-19T00:19:26;100276.53;;;13.40;60.55
65280;BME280;51878;55.748;48.742;2022-08-19T00:21:53;100214.03;;;13.00;60.86
65280;BME280;51878;55.748;48.742;2022-08-19T00:24:21;100203.97;;;12.86;60.73
65280;BME280;51878;55.748;48.742;2022-08-19T00:26:49;100283.75;;;13.33;60.67
65280;BME280;51878;55.748;48.742;2022-08-19T00:29:19;100296.63;;;13.39;60.66
65280;BME280;51878;55.748;48.742;2022-08-19T00:31:47;100188.84;;;12.60;60.86
65280;BME280;51878;55.748;48.742;2022-08-19T00:34:16;100307.63;;;13.22;61.11
65280;BME280;51878;55.748;48.742;2022-08-19T00:36:43;100284.41;;;13.12;61.62
65280;BME280;51878;55.748;48.742;2022-08-19T00:39:12;100300.13;;;13.24;61.29
65280;BME280;51878;55.748;48.742;2022-08-19T00:41:40;100259.38;;;12.93;61.40
65280;BME280;51878;55.748;48.742;2022-08-19T00:44:22;100305.56;;;13.24;61.17
65280;BME280;51878;55.748;48.742;2022-08-19T00:46:55;100311.38;;;13.21;60.97
65280;BME280;51878;55.748;48.742;2022-08-19T00:52:07;100300.25;;;13.08;61.15
65280;BME280;51878;55.748;48.742;2022-08-19T00:54:37;100272.84;;;12.87;61.14
65280;BME280;51878;55.748;48.742;2022-08-19T00:57:09;100314.59;;;13.02;61.42
65280;BME280;51878;55.748;48.742;2022-08-19T00:59:40;100293.28;;;12.82;61.48
65280;BME280;51878;55.748;48.742;2022-08-19T01:02:19;100300.78;;;12.80;61.45
65280;BME280;51878;55.748;48.742;2022-08-19T01:04:46;100342.91;;;12.93;61.83
65280;BME280;51878;55.748;48.742;2022-08-19T01:07:14;100340.31;;;12.99;61.19
65280;BME280;51878;55.748;48.742;2022-08-19T01:09:43;100347.84;;;12.89;61.75
65280;BME280;51878;55.748;48.742;2022-08-19T01:12:10;100307.56;;;12.61;61.65
65280;BME280;51878;55.748;48.742;2022-08-19T01:14:39;100325.34;;;12.72;61.35
65280;BME280;51878;55.748;48.742;2022-08-19T01:17:10;100364.25;;;12.81;61.74
65280;BME280;51878;55.748;48.742;2022-08-19T01:19:41;100330.28;;;12.69;61.41
65280;BME280;51878;55.748;48.742;2022-08-19T01:24:46;100316.59;;;12.54;61.41
65280;BME280;51878;55.748;48.742;2022-08-19T01:27:15;100372.03;;;12.84;61.23
65280;BME280;51878;55.748;48.742;2022-08-19T01:29:43;100367.00;;;12.73;60.95
65280;BME280;51878;55.748;48.742;2022-08-19T01:32:15;100327.84;;;12.51;61.05
65280;BME280;51878;55.748;48.742;2022-08-19T01:34:46;100376.81;;;12.82;60.95
65280;BME280;51878;55.748;48.742;2022-08-19T01:37:14;100321.41;;;12.44;60.70
65280;BME280;51878;55.748;48.742;2022-08-19T01:39:42;100371.59;;;12.72;61.04
65280;BME280;51878;55.748;48.742;2022-08-19T01:42:10;100347.88;;;12.50;60.76
65280;BME280;51878;55.748;48.742;2022-08-19T01:44:39;100300.41;;;12.21;60.89
65280;BME280;51878;55.748;48.742;2022-08-19T01:47:26;100379.25;;;12.69;60.54
65280;BME280;51878;55.748;48.742;2022-08-19T01:49:53;100359.25;;;12.61;60.31
65280;BME280;51878;55.748;48.742;2022-08-19T01:52:20;100331.75;;;12.48;60.30
65280;BME280;51878;55.748;48.742;2022-08-19T01:54:47;100346.88;;;12.51;60.15
65280;BME280;51878;55.748;48.742;2022-08-19T01:57:33;100355.03;;;12.51;59.93
65280;BME280;51878;55.748;48.742;2022-08-19T02:00:06;100360.31;;;12.52;60.65
65280;BME280;51878;55.748;48.742;2022-08-19T02:02:53;100362.66;;;12.55;60.32
65280;BME280;51878;55.748;48.742;2022-08-19T02:05:21;100400.53;;;12.65;60.73
65280;BME280;51878;55.748;48.742;2022-08-19T02:16:39;100402.72;;;12.70;60.43
65280;BME280;51878;55.748;48.742;2022-08-19T02:19:07;100400.66;;;12.72;60.53
65280;BME280;51878;55.748;48.742;2022-08-19T02:21:34;100366.38;;;12.54;60.71
65280;BME280;51878;55.748;48.742;2022-08-19T02:24:02;100402.69;;;12.78;60.87
65280;BME280;51878;55.748;48.742;2022-08-19T02:26:29;100343.34;;;12.42;60.90
65280;BME280;51878;55.748;48.742;2022-08-19T02:28:56;100353.53;;;12.48;60.86
65280;BME280;51878;55.748;48.742;2022-08-19T02:31:25;100395.44;;;12.70;60.71
65280;BME280;51878;55.748;48.742;2022-08-19T02:33:55;100255.19;;;11.89;60.70
65280;BME280;51878;55.748;48.742;2022-08-19T02:36:25;100414.06;;;12.81;60.73
65280;BME280;51878;55.748;48.742;2022-08-19T02:38:53;100403.00;;;12.83;60.31
65280;BME280;51878;55.748;48.742;2022-08-19T02:41:27;100417.41;;;12.92;60.71
65280;BME280;51878;55.748;48.742;2022-08-19T02:43:56;100420.25;;;12.98;60.39
65280;BME280;51878;55.748;48.742;2022-08-19T02:46:46;100418.19;;;13.09;60.31
65280;BME280;51878;55.748;48.742;2022-08-19T02:49:14;100411.06;;;13.08;60.32
65280;BME280;51878;55.748;48.742;2022-08-19T02:51:46;100354.53;;;12.78;60.17
65280;BME280;51878;55.748;48.742;2022-08-19T02:54:14;100358.41;;;12.92;59.38
65280;BME280;51878;55.748;48.742;2022-08-19T02:56:43;100364.28;;;13.04;59.20
65280;BME280;51878;55.748;48.742;2022-08-19T02:59:10;100322.69;;;12.87;58.45
65280;BME280;51878;55.748;48.742;2022-08-19T03:04:25;100385.69;;;13.38;57.69
65280;BME280;51878;55.748;48.742;2022-08-19T03:06:53;100362.75;;;13.24;57.83
65280;BME280;51878;55.748;48.742;2022-08-19T03:09:23;100418.84;;;13.65;57.61
65280;BME280;51878;55.748;48.742;2022-08-19T03:11:50;100382.34;;;13.51;57.57
65280;BME280;51878;55.748;48.742;2022-08-19T03:14:24;100416.91;;;13.74;56.75
65280;BME280;51878;55.748;48.742;2022-08-19T03:16:51;100411.38;;;13.82;56.79
65280;BME280;51878;55.748;48.742;2022-08-19T03:19:19;100416.94;;;13.89;56.69
65280;BME280;51878;55.748;48.742;2022-08-19T03:21:48;100392.59;;;13.87;56.55
65280;BME280;51878;55.748;48.742;2022-08-19T03:24:16;100383.75;;;13.85;56.47
65280;BME280;51878;55.748;48.742;2022-08-19T03:26:50;100361.63;;;13.80;55.94
65280;BME280;51878;55.748;48.742;2022-08-19T03:29:19;100423.19;;;14.12;55.88
65280;BME280;51878;55.748;48.742;2022-08-19T03:31:58;100398.16;;;14.09;55.50
65280;BME280;51878;55.748;48.742;2022-08-19T03:34:46;100429.34;;;14.29;55.27
65280;BME280;51878;55.748;48.742;2022-08-19T03:37:13;100430.09;;;14.38;55.47
65280;BME280;51878;55.748;48.742;2022-08-19T03:39:41;100434.53;;;14.54;54.43
65280;BME280;51878;55.748;48.742;2022-08-19T03:42:09;100385.78;;;14.21;54.22
65280;BME280;51878;55.748;48.742;2022-08-19T03:44:56;100437.19;;;14.62;54.07
65280;BME280;51878;55.748;48.742;2022-08-19T03:47:25;100427.38;;;14.67;53.72
65280;BME280;51878;55.748;48.742;2022-08-19T03:49:52;100436.81;;;14.80;53.42
65280;BME280;51878;55.748;48.742;2022-08-19T03:52:19;100421.66;;;14.77;53.53
65280;BME280;51878;55.748;48.742;2022-08-19T03:54:46;100409.78;;;14.70;52.66
65280;BME280;51878;55.748;48.742;2022-08-19T03:57:13;100394.91;;;14.73;52.74
65280;BME280;51878;55.748;48.742;2022-08-19T03:59:40;100393.88;;;14.88;51.99
65280;BME280;51878;55.748;48.742;2022-08-19T04:02:10;100415.66;;;15.03;52.04
65280;BME280;51878;55.748;48.742;2022-08-19T04:04:39;100428.91;;;15.21;50.19
65280;BME280;51878;55.748;48.742;2022-08-19T04:07:07;100400.41;;;15.09;49.87
65280;BME280;51878;55.748;48.742;2022-08-19T04:09:35;100445.47;;;15.35;49.04
65280;BME280;51878;55.748;48.742;2022-08-19T04:12:04;100421.97;;;15.40;47.14
65280;BME280;51878;55.748;48.742;2022-08-19T04:14:33;100431.53;;;15.51;47.51
65280;BME280;51878;55.748;48.742;2022-08-19T04:17:01;100394.19;;;15.37;46.71
65280;BME280;51878;55.748;48.742;2022-08-19T04:19:34;100382.03;;;15.39;47.10
65280;BME280;51878;55.748;48.742;2022-08-19T04:22:02;100456.06;;;15.81;46.59
65280;BME280;51878;55.748;48.742;2022-08-19T04:24:29;100433.66;;;15.92;46.57
65280;BME280;51878;55.748;48.742;2022-08-19T04:26:59;100441.56;;;16.08;46.47
65280;BME280;51878;55.748;48.742;2022-08-19T04:29:26;100438.63;;;16.10;45.86
65280;BME280;51878;55.748;48.742;2022-08-19T04:31:55;100449.22;;;16.20;44.87
65280;BME280;51878;55.748;48.742;2022-08-19T04:34:25;100397.31;;;16.05;45.19
65280;BME280;51878;55.748;48.742;2022-08-19T04:36:54;100399.63;;;17.19;53.04
65280;BME280;51878;55.748;48.742;2022-08-19T04:39:27;100412.28;;;17.20;44.26
65280;BME280;51878;55.748;48.742;2022-08-19T04:42:14;100450.34;;;17.56;45.32
65280;BME280;51878;55.748;48.742;2022-08-19T04:45:00;100416.69;;;17.14;42.71
65280;BME280;51878;55.748;48.742;2022-08-19T04:47:30;100439.31;;;17.30;42.35
65280;BME280;51878;55.748;48.742;2022-08-19T04:50:14;100445.34;;;18.27;43.05
65280;BME280;51878;55.748;48.742;2022-08-19T04:52:42;100478.44;;;17.79;41.16
65280;BME280;51878;55.748;48.742;2022-08-19T04:55:10;100455.91;;;18.10;41.60
65280;BME280;51878;55.748;48.742;2022-08-19T04:57:38;100465.13;;;18.69;40.13
65280;BME280;51878;55.748;48.742;2022-08-19T05:00:09;100437.75;;;18.09;39.79
65280;BME280;51878;55.748;48.742;2022-08-19T05:02:37;100352.88;;;18.07;39.22
65280;BME280;51878;55.748;48.742;2022-08-19T05:05:05;100397.00;;;18.26;38.56
65280;BME280;51878;55.748;48.742;2022-08-19T05:07:33;100365.16;;;18.83;41.14
65280;BME280;51878;55.748;48.742;2022-08-19T05:10:02;100461.66;;;19.07;38.15
65280;BME280;51878;55.748;48.742;2022-08-19T05:12:29;100433.28;;;18.54;39.13
65280;BME280;51878;55.748;48.742;2022-08-19T05:14:58;100393.81;;;18.35;38.56
65280;BME280;51878;55.748;48.742;2022-08-19T05:17:26;100376.66;;;19.12;40.84
65280;BME280;51878;55.748;48.742;2022-08-19T05:19:57;100477.63;;;19.36;37.43
65280;BME280;51878;55.748;48.742;2022-08-19T05:22:44;100436.69;;;19.53;38.99
65280;BME280;51878;55.748;48.742;2022-08-19T05:25:16;100473.06;;;19.94;39.37
65280;BME280;51878;55.748;48.742;2022-08-19T05:27:45;100476.97;;;19.79;38.21
65280;BME280;51878;55.748;48.742;2022-08-19T05:30:13;100490.84;;;19.53;37.91
65280;BME280;51878;55.748;48.742;2022-08-19T05:32:41;100424.72;;;18.89;37.61
65280;BME280;51878;55.748;48.742;2022-08-19T05:35:08;100490.06;;;18.74;38.53
65280;BME280;51878;55.748;48.742;2022-08-19T05:37:36;100428.88;;;18.33;38.44
65280;BME280;51878;55.748;48.742;2022-08-19T05:40:03;100459.22;;;19.37;39.57
65280;BME280;51878;55.748;48.742;2022-08-19T05:42:31;100514.72;;;20.04;39.46
65280;BME280;51878;55.748;48.742;2022-08-19T05:44:58;100428.75;;;18.87;38.45
65280;BME280;51878;55.748;48.742;2022-08-19T05:47:28;100475.22;;;19.02;38.44
65280;BME280;51878;55.748;48.742;2022-08-19T05:49:56;100490.69;;;19.86;38.16
65280;BME280;51878;55.748;48.742;2022-08-19T05:52:23;100480.28;;;20.45;36.12
65280;BME280;51878;55.748;48.742;2022-08-19T05:54:52;100487.28;;;21.40;35.06
65280;BME280;51878;55.748;48.742;2022-08-19T05:57:23;100442.44;;;21.63;34.59
65280;BME280;51878;55.748;48.742;2022-08-19T06:00:01;100520.13;;;22.62;35.39
65280;BME280;51878;55.748;48.742;2022-08-19T06:02:40;100465.53;;;22.22;33.19
65280;BME280;51878;55.748;48.742;2022-08-19T06:05:11;100516.53;;;23.90;32.06
65280;BME280;51878;55.748;48.742;2022-08-19T06:07:41;100503.00;;;24.95;30.56
65280;BME280;51878;55.748;48.742;2022-08-19T06:10:11;100517.41;;;25.14;30.58
65280;BME280;51878;55.748;48.742;2022-08-19T06:12:38;100527.78;;;25.63;28.57
65280;BME280;51878;55.748;48.742;2022-08-19T06:15:09;100536.97;;;25.90;28.02
65280;BME280;51878;55.748;48.742;2022-08-19T06:17:37;100501.31;;;26.09;27.40
65280;BME280;51878;55.748;48.742;2022-08-19T06:20:06;100552.53;;;27.20;27.12
65280;BME280;51878;55.748;48.742;2022-08-19T06:22:42;100545.44;;;26.01;27.86
65280;BME280;51878;55.748;48.742;2022-08-19T06:25:11;100538.13;;;27.34;26.54
65280;BME280;51878;55.748;48.742;2022-08-19T06:27:38;100520.84;;;28.26;24.88
65280;BME280;51878;55.748;48.742;2022-08-19T06:30:24;100513.94;;;27.39;25.72
65280;BME280;51878;55.748;48.742;2022-08-19T06:32:52;100453.22;;;26.84;26.12
65280;BME280;51878;55.748;48.742;2022-08-19T06:35:19;100545.16;;;28.56;24.95
65280;BME280;51878;55.748;48.742;2022-08-19T06:37:46;100509.66;;;26.74;26.35
65280;BME280;51878;55.748;48.742;2022-08-19T06:40:14;100541.47;;;26.51;26.85
65280;BME280;51878;55.748;48.742;2022-08-19T06:42:41;100503.56;;;26.45;27.57
65280;BME280;51878;55.748;48.742;2022-08-19T06:45:09;100518.53;;;27.81;25.69
65280;BME280;51878;55.748;48.742;2022-08-19T06:47:37;100577.44;;;29.34;23.93
65280;BME280;51878;55.748;48.742;2022-08-19T06:50:05;100571.09;;;29.88;23.27
65280;BME280;51878;55.748;48.742;2022-08-19T06:52:34;100526.81;;;29.45;23.50
65280;BME280;51878;55.748;48.742;2022-08-19T06:55:04;100533.59;;;30.34;22.46
65280;BME280;51878;55.748;48.742;2022-08-19T06:57:33;100540.47;;;31.10;21.17
65280;BME280;51878;55.748;48.742;2022-08-19T07:00:00;100529.91;;;31.93;19.99
65280;BME280;51878;55.748;48.742;2022-08-19T07:02:29;100558.63;;;31.85;20.01
65280;BME280;51878;55.748;48.742;2022-08-19T07:04:56;100541.56;;;31.62;19.94
65280;BME280;51878;55.748;48.742;2022-08-19T07:07:29;100579.59;;;32.82;19.60
65280;BME280;51878;55.748;48.742;2022-08-19T07:09:58;100547.28;;;31.52;20.21
65280;BME280;51878;55.748;48.742;2022-08-19T07:12:30;100501.03;;;32.44;19.15
65280;BME280;51878;55.748;48.742;2022-08-19T07:15:03;100570.16;;;31.83;20.32
65280;BME280;51878;55.748;48.742;2022-08-19T07:17:31;100574.66;;;32.93;19.53
65280;BME280;51878;55.748;48.742;2022-08-19T07:20:00;100579.13;;;32.42;20.05
65280;BME280;51878;55.748;48.742;2022-08-19T07:22:31;100565.88;;;30.16;22.03
65280;BME280;51878;55.748;48.742;2022-08-19T07:24:59;100593.78;;;33.38;19.01
65280;BME280;51878;55.748;48.742;2022-08-19T07:27:27;100574.09;;;32.06;20.45
65280;BME280;51878;55.748;48.742;2022-08-19T07:29:54;100557.88;;;32.36;20.39
65280;BME280;51878;55.748;48.742;2022-08-19T07:32:26;100600.78;;;33.95;19.08
65280;BME280;51878;55.748;48.742;2022-08-19T07:34:54;100546.00;;;33.65;19.44
65280;BME280;51878;55.748;48.742;2022-08-19T07:37:24;100602.44;;;33.69;18.74
65280;BME280;51878;55.748;48.742;2022-08-19T07:39:58;100592.03;;;32.43;19.99
65280;BME280;51878;55.748;48.742;2022-08-19T07:42:25;100606.84;;;34.62;18.26
65280;BME280;51878;55.748;48.742;2022-08-19T07:44:53;100560.41;;;32.38;19.81
65280;BME280;51878;55.748;48.742;2022-08-19T07:47:20;100605.91;;;31.73;20.51
65280;BME280;51878;55.748;48.742;2022-08-19T07:50:09;100581.94;;;29.35;23.02
65280;BME280;51878;55.748;48.742;2022-08-19T07:52:38;100575.47;;;27.38;26.04
65280;BME280;51878;55.748;48.742;2022-08-19T07:55:09;100614.09;;;27.19;26.65
65280;BME280;51878;55.748;48.742;2022-08-19T07:57:39;100611.31;;;29.22;24.30
65280;BME280;51878;55.748;48.742;2022-08-19T08:00:07;100597.75;;;30.30;22.45
65280;BME280;51878;55.748;48.742;2022-08-19T08:02:34;100600.22;;;32.59;20.05
65280;BME280;51878;55.748;48.742;2022-08-19T08:05:01;100609.00;;;33.50;19.04
65280;BME280;51878;55.748;48.742;2022-08-19T08:07:47;100593.38;;;33.86;18.63
65280;BME280;51878;55.748;48.742;2022-08-19T08:10:33;100623.28;;;29.33;23.77
65280;BME280;51878;55.748;48.742;2022-08-19T08:13:00;100626.66;;;30.10;23.37
65280;BME280;51878;55.748;48.742;2022-08-19T08:15:31;100590.44;;;31.56;22.33
65280;BME280;51878;55.748;48.742;2022-08-19T08:17:58;100624.66;;;32.01;21.22
65280;BME280;51878;55.748;48.742;2022-08-19T08:20:26;100556.63;;;28.49;24.93
65280;BME280;51878;55.748;48.742;2022-08-19T08:22:53;100576.63;;;31.84;20.84
65280;BME280;51878;55.748;48.742;2022-08-19T08:25:38;100575.44;;;32.28;19.81
65280;BME280;51878;55.748;48.742;2022-08-19T08:28:06;100617.13;;;31.73;21.50
65280;BME280;51878;55.748;48.742;2022-08-19T08:30:34;100622.66;;;33.99;18.90
65280;BME280;51878;55.748;48.742;2022-08-19T08:33:04;100595.72;;;34.20;18.74
65280;BME280;51878;55.748;48.742;2022-08-19T08:35:34;100599.03;;;35.35;17.74
65280;BME280;51878;55.748;48.742;2022-08-19T08:38:02;100624.13;;;35.14;17.71
65280;BME280;51878;55.748;48.742;2022-08-19T08:40:50;100617.41;;;34.20;18.46
65280;BME280;51878;55.748;48.742;2022-08-19T08:43:36;100629.81;;;33.35;19.35
65280;BME280;51878;55.748;48.742;2022-08-19T08:46:05;100630.38;;;30.79;23.26
65280;BME280;51878;55.748;48.742;2022-08-19T08:52:55;100621.75;;;34.40;18.86
65280;BME280;51878;55.748;48.742;2022-08-19T08:54:53;100577.00;;;34.61;18.77
65280;BME280;51878;55.748;48.742;2022-08-19T08:57:32;100631.31;;;34.97;17.94
65280;BME280;51878;55.748;48.742;2022-08-19T09:00:09;100612.59;;;35.24;17.66
65280;BME280;51878;55.748;48.742;2022-08-19T09:02:40;100608.94;;;32.76;19.16
65280;BME280;51878;55.748;48.742;2022-08-19T09:05:10;100599.91;;;31.84;20.71
65280;BME280;51878;55.748;48.742;2022-08-19T09:07:57;100614.75;;;34.37;18.94
65280;BME280;51878;55.748;48.742;2022-08-19T09:13:36;100643.16;;;28.85;24.39
65280;BME280;51878;55.748;48.742;2022-08-19T09:16:18;100589.91;;;31.01;22.17
65280;BME280;51878;55.748;48.742;2022-08-19T09:19:01;100643.63;;;33.65;19.78
65280;BME280;51878;55.748;48.742;2022-08-19T09:21:29;100632.28;;;34.34;18.65
65280;BME280;51878;55.748;48.742;2022-08-19T09:23:59;100642.66;;;33.97;18.52
65280;BME280;51878;55.748;48.742;2022-08-19T09:26:27;100648.78;;;33.58;19.41
65280;BME280;51878;55.748;48.742;2022-08-19T09:28:55;100625.16;;;35.18;17.57
65280;BME280;51878;55.748;48.742;2022-08-19T09:31:25;100611.41;;;35.56;17.44
65280;BME280;51878;55.748;48.742;2022-08-19T09:33:54;100648.00;;;33.85;19.21
65280;BME280;51878;55.748;48.742;2022-08-19T09:36:26;100614.09;;;30.92;22.55
65280;BME280;51878;55.748;48.742;2022-08-19T09:38:56;100622.53;;;31.16;22.09
65280;BME280;51878;55.748;48.742;2022-08-19T09:41:24;100600.28;;;30.21;22.44
65280;BME280;51878;55.748;48.742;2022-08-19T09:43:55;100635.03;;;33.28;19.85
65280;BME280;51878;55.748;48.742;2022-08-19T09:46:26;100653.97;;;33.23;19.70
65280;BME280;51878;55.748;48.742;2022-08-19T09:48:54;100662.31;;;32.76;20.03
65280;BME280;51878;55.748;48.742;2022-08-19T09:51:26;100539.56;;;28.87;24.04
65280;BME280;51878;55.748;48.742;2022-08-19T09:53:58;100675.84;;;31.88;21.18
65280;BME280;51878;55.748;48.742;2022-08-19T09:56:25;100584.22;;;28.92;23.62
65280;BME280;51878;55.748;48.742;2022-08-19T09:58:53;100668.59;;;27.95;25.35
65280;BME280;51878;55.748;48.742;2022-08-19T10:01:25;100650.56;;;28.18;25.94
65280;BME280;51878;55.748;48.742;2022-08-19T10:03:55;100636.97;;;27.21;27.24
65280;BME280;51878;55.748;48.742;2022-08-19T10:06:45;100641.47;;;30.60;23.55
65280;BME280;51878;55.748;48.742;2022-08-19T10:09:17;100662.88;;;32.59;21.02
65280;BME280;51878;55.748;48.742;2022-08-19T10:11:52;100621.50;;;32.98;19.97
65280;BME280;51878;55.748;48.742;2022-08-19T10:14:20;100673.00;;;33.72;19.57
65280;BME280;51878;55.748;48.742;2022-08-19T10:16:50;100681.06;;;33.32;19.63
65280;BME280;51878;55.748;48.742;2022-08-19T10:19:19;100656.09;;;32.22;21.16
65280;BME280;51878;55.748;48.742;2022-08-19T10:21:52;100637.66;;;31.92;21.64
65280;BME280;51878;55.748;48.742;2022-08-19T10:24:21;100665.84;;;33.80;19.65
65280;BME280;51878;55.748;48.742;2022-08-19T10:26:51;100673.22;;;34.18;18.96
65280;BME280;51878;55.748;48.742;2022-08-19T10:29:21;100667.13;;;33.41;19.67
65280;BME280;51878;55.748;48.742;2022-08-19T10:32:00;100662.06;;;34.12;19.37
65280;BME280;51878;55.748;48.742;2022-08-19T10:34:30;100672.84;;;34.33;18.82
65280;BME280;51878;55.748;48.742;2022-08-19T10:36:58;100665.78;;;33.39;19.77
65280;BME280;51878;55.748;48.742;2022-08-19T10:39:29;100621.00;;;34.11;17.86
65280;BME280;51878;55.748;48.742;2022-08-19T10:41:58;100637.88;;;32.77;19.26
65280;BME280;51878;55.748;48.742;2022-08-19T10:44:26;100650.81;;;30.85;21.81
65280;BME280;51878;55.748;48.742;2022-08-19T10:46:57;100580.22;;;30.48;21.74
65280;BME280;51878;55.748;48.742;2022-08-19T10:49:25;100646.22;;;31.82;20.34
65280;BME280;51878;55.748;48.742;2022-08-19T10:51:53;100622.75;;;28.69;23.71
65280;BME280;51878;55.748;48.742;2022-08-19T10:54:43;100657.63;;;30.68;22.07
65280;BME280;51878;55.748;48.742;2022-08-19T10:57:31;100661.28;;;30.30;22.00
65280;BME280;51878;55.748;48.742;2022-08-19T11:00:20;100664.38;;;29.07;23.88
65280;BME280;51878;55.748;48.742;2022-08-19T11:02:47;100572.78;;;28.83;23.81
65280;BME280;51878;55.748;48.742;2022-08-19T11:05:15;100675.25;;;27.89;23.75
65280;BME280;51878;55.748;48.742;2022-08-19T11:07:44;100672.94;;;27.75;24.66
65280;BME280;51878;55.748;48.742;2022-08-19T11:10:13;100660.41;;;27.25;24.80
65280;BME280;51878;55.748;48.742;2022-08-19T11:12:46;100634.97;;;26.84;25.35
65280;BME280;51878;55.748;48.742;2022-08-19T11:15:14;100655.97;;;28.60;24.12
65280;BME280;51878;55.748;48.742;2022-08-19T11:17:41;100676.28;;;30.44;21.80
65280;BME280;51878;55.748;48.742;2022-08-19T11:20:14;100637.31;;;30.92;20.25
65280;BME280;51878;55.748;48.742;2022-08-19T11:22:42;100668.59;;;30.65;21.10
65280;BME280;51878;55.748;48.742;2022-08-19T11:25:10;100645.66;;;31.02;20.41
65280;BME280;51878;55.748;48.742;2022-08-19T11:27:39;100626.47;;;31.39;20.36
65280;BME280;51878;55.748;48.742;2022-08-19T11:30:09;100660.91;;;30.81;20.24
65280;BME280;51878;55.748;48.742;2022-08-19T11:32:37;100649.47;;;31.41;19.33
65280;BME280;51878;55.748;48.742;2022-08-19T11:35:04;100642.44;;;31.67;19.73
65280;BME280;51878;55.748;48.742;2022-08-19T11:37:32;100624.78;;;31.43;18.91
65280;BME280;51878;55.748;48.742;2022-08-19T11:40:05;100660.41;;;31.90;18.72
65280;BME280;51878;55.748;48.742;2022-08-19T11:42:33;100607.97;;;28.74;21.20
65280;BME280;51878;55.748;48.742;2022-08-19T11:45:18;100650.13;;;28.98;21.67
65280;BME280;51878;55.748;48.742;2022-08-19T11:47:45;100667.16;;;28.81;21.87
65280;BME280;51878;55.748;48.742;2022-08-19T11:50:15;100622.03;;;29.80;19.77
65280;BME280;51878;55.748;48.742;2022-08-19T11:52:43;100626.59;;;29.50;19.85
65280;BME280;51878;55.748;48.742;2022-08-19T11:55:13;100663.53;;;28.91;20.64
65280;BME280;51878;55.748;48.742;2022-08-19T11:57:40;100614.94;;;28.66;20.58
65280;BME280;51878;55.748;48.742;2022-08-19T12:00:08;100633.47;;;26.71;23.45
65280;BME280;51878;55.748;48.742;2022-08-19T12:02:55;100619.25;;;26.13;24.79
65280;BME280;51878;55.748;48.742;2022-08-19T12:05:22;100642.81;;;27.72;22.93
65280;BME280;51878;55.748;48.742;2022-08-19T12:07:49;100601.31;;;27.76;22.25
65280;BME280;51878;55.748;48.742;2022-08-19T12:10:16;100648.84;;;26.52;23.51
65280;BME280;51878;55.748;48.742;2022-08-19T12:12:43;100642.25;;;27.23;23.42
65280;BME280;51878;55.748;48.742;2022-08-19T12:15:13;100601.56;;;26.79;23.35
65280;BME280;51878;55.748;48.742;2022-08-19T12:17:41;100663.44;;;27.71;22.54
65280;BME280;51878;55.748;48.742;2022-08-19T12:20:10;100633.63;;;27.72;22.45
65280;BME280;51878;55.748;48.742;2022-08-19T12:22:37;100652.91;;;28.88;22.14
65280;BME280;51878;55.748;48.742;2022-08-19T12:25:06;100614.91;;;29.07;21.64
65280;BME280;51878;55.748;48.742;2022-08-19T12:27:34;100574.19;;;28.70;21.47
65280;BME280;51878;55.748;48.742;2022-08-19T12:30:09;100621.84;;;27.59;22.23
65280;BME280;51878;55.748;48.742;2022-08-19T12:32:38;100645.22;;;26.51;23.89
65280;BME280;51878;55.748;48.742;2022-08-19T12:35:06;100596.69;;;25.66;24.56
65280;BME280;51878;55.748;48.742;2022-08-19T12:37:34;100600.75;;;26.24;24.15
65280;BME280;51878;55.748;48.742;2022-08-19T12:40:02;100647.56;;;27.77;22.97
65280;BME280;51878;55.748;48.742;2022-08-19T12:42:30;100640.19;;;28.08;22.50
65280;BME280;51878;55.748;48.742;2022-08-19T12:44:57;100644.81;;;28.60;21.80
65280;BME280;51878;55.748;48.742;2022-08-19T12:47:24;100629.56;;;27.95;22.27
65280;BME280;51878;55.748;48.742;2022-08-19T12:49:53;100648.28;;;26.77;22.75
65280;BME280;51878;55.748;48.742;2022-08-19T12:52:25;100637.50;;;26.31;23.44
65280;BME280;51878;55.748;48.742;2022-08-19T12:54:55;100613.50;;;26.79;23.15
65280;BME280;51878;55.748;48.742;2022-08-19T12:57:25;100642.91;;;27.35;22.12
65280;BME280;51878;55.748;48.742;2022-08-19T12:59:59;100596.50;;;27.13;22.38
65280;BME280;51878;55.748;48.742;2022-08-19T13:02:27;100597.13;;;27.78;21.09
65280;BME280;51878;55.748;48.742;2022-08-19T13:04:54;100629.91;;;28.14;21.09
65280;BME280;51878;55.748;48.742;2022-08-19T13:07:21;100642.72;;;28.10;20.48
65280;BME280;51878;55.748;48.742;2022-08-19T13:09:51;100613.25;;;28.50;20.18
65280;BME280;51878;55.748;48.742;2022-08-19T13:12:18;100595.13;;;27.69;21.68
65280;BME280;51878;55.748;48.742;2022-08-19T13:14:47;100602.25;;;28.02;20.69
65280;BME280;51878;55.748;48.742;2022-08-19T13:17:16;100635.28;;;27.73;21.25
65280;BME280;51878;55.748;48.742;2022-08-19T13:19:43;100614.66;;;28.52;20.80
65280;BME280;51878;55.748;48.742;2022-08-19T13:22:11;100639.16;;;27.19;21.72